Time;durP1;ratioP1;P1;durP2;ratioP2;P2;SDS_P1;SDS_P2;PMS_P1;PMS_P2;Temp;Humidity;BMP_temperature;BMP_pressure;BME280_temperature;BME280_humidity;BME280_pressure;Samples;Min_cycle;Max_cycle;Signal;HPM_P1;HPM_P2
2022/11/30 00:01:50;;;;;;;0.00;0.00;;;;;;;;;;5013550;28;20054;-73
2022/11/30 00:04:16;;;;;;;0.00;0.00;;;;;;;;;;5019911;28;20033;-72
2022/11/30 00:06:43;;;;;;;0.00;0.00;;;;;;;;;;5028671;28;20033;-73
2022/11/30 00:09:09;;;;;;;0.00;0.00;;;;;;;;;;5033227;28;20025;-73
2022/11/30 00:11:36;;;;;;;0.00;0.00;;;;;;;;;;5033211;28;20026;-73
2022/11/30 00:14:02;;;;;;;0.00;0.00;;;;;;;;;;5015174;28;20152;-74
2022/11/30 00:16:28;;;;;;;0.00;0.00;;;;;;;;;;5015568;28;20475;-73
2022/11/30 00:18:55;;;;;;;0.00;0.00;;;;;;;;;;5011096;28;20321;-73
2022/11/30 00:21:21;;;;;;;0.00;0.00;;;;;;;;;;4998590;28;20032;-74
2022/11/30 00:23:48;;;;;;;0.00;0.00;;;;;;;;;;5025299;28;20025;-73
2022/11/30 00:26:16;;;;;;;0.00;0.00;;;;;;;;;;5021836;28;20029;-73
2022/11/30 00:28:44;;;;;;;0.00;0.00;;;;;;;;;;5021912;28;20021;-73
2022/11/30 00:31:11;;;;;;;0.00;0.00;;;;;;;;;;5028420;28;20041;-73
2022/11/30 00:33:38;;;;;;;0.00;0.00;;;;;;;;;;5023529;28;20026;-73
2022/11/30 00:36:06;;;;;;;0.00;0.00;;;;;;;;;;4995464;28;20041;-73
2022/11/30 00:38:32;;;;;;;0.00;0.00;;;;;;;;;;5013014;28;20499;-74
2022/11/30 00:40:59;;;;;;;0.00;0.00;;;;;;;;;;5013461;28;20117;-74
2022/11/30 00:43:26;;;;;;;0.00;0.00;;;;;;;;;;5014514;28;20026;-74
2022/11/30 00:45:52;;;;;;;0.00;0.00;;;;;;;;;;5014736;28;20076;-74
2022/11/30 00:48:18;;;;;;;0.00;0.00;;;;;;;;;;5012570;28;21323;-74
2022/11/30 00:50:45;;;;;;;0.00;0.00;;;;;;;;;;5031373;28;20057;-74
2022/11/30 00:53:11;;;;;;;0.00;0.00;;;;;;;;;;5030709;28;20025;-74
2022/11/30 00:55:37;;;;;;;0.00;0.00;;;;;;;;;;5032505;28;20033;-73
2022/11/30 00:58:05;;;;;;;0.00;0.00;;;;;;;;;;5032527;28;20104;-74
2022/11/30 01:00:32;;;;;;;0.00;0.00;;;;;;;;;;5030160;28;20051;-74
2022/11/30 01:02:58;;;;;;;0.00;0.00;;;;;;;;;;5032386;28;20091;-74
2022/11/30 01:05:25;;;;;;;0.00;0.00;;;;;;;;;;5014394;28;20363;-73
2022/11/30 01:07:51;;;;;;;0.00;0.00;;;;;;;;;;5031440;28;20033;-74
2022/11/30 01:10:18;;;;;;;0.00;0.00;;;;;;;;;;5013007;28;20037;-73
2022/11/30 01:12:44;;;;;;;0.00;0.00;;;;;;;;;;4997400;28;20025;-74
2022/11/30 01:15:11;;;;;;;0.00;0.00;;;;;;;;;;5006830;28;20071;-71
2022/11/30 01:17:37;;;;;;;0.00;0.00;;;;;;;;;;5012782;28;20041;-74
2022/11/30 01:20:04;;;;;;;0.00;0.00;;;;;;;;;;5022690;28;20033;-73
2022/11/30 01:22:31;;;;;;;0.00;0.00;;;;;;;;;;5013812;28;20041;-74
2022/11/30 01:24:57;;;;;;;0.00;0.00;;;;;;;;;;5011758;28;20026;-74
2022/11/30 01:27:23;;;;;;;0.00;0.00;;;;;;;;;;5009624;28;20041;-74
2022/11/30 01:29:50;;;;;;;0.00;0.00;;;;;;;;;;5014399;28;20052;-73
2022/11/30 01:32:16;;;;;;;0.00;0.00;;;;;;;;;;5013690;28;20029;-73
2022/11/30 01:34:42;;;;;;;0.00;0.00;;;;;;;;;;5007756;28;20037;-74
2022/11/30 01:37:08;;;;;;;0.00;0.00;;;;;;;;;;5014585;28;20022;-74
2022/11/30 01:39:35;;;;;;;0.00;0.00;;;;;;;;;;5006037;28;20068;-74
2022/11/30 01:42:01;;;;;;;0.00;0.00;;;;;;;;;;5031228;28;20045;-73
2022/11/30 01:44:27;;;;;;;0.00;0.00;;;;;;;;;;5028341;28;20025;-73
2022/11/30 01:47:02;;;;;;;0.00;0.00;;;;;;;;;;5008072;28;20390;-73
2022/11/30 01:49:34;;;;;;;0.00;0.00;;;;;;;;;;5007877;28;20033;-73
2022/11/30 01:52:12;;;;;;;0.00;0.00;;;;;;;;;;5003076;28;20042;-74
2022/11/30 01:54:41;;;;;;;0.00;0.00;;;;;;;;;;5025529;28;20036;-74
2022/11/30 01:57:18;;;;;;;0.00;0.00;;;;;;;;;;5010318;28;20036;-73
2022/11/30 01:59:45;;;;;;;0.00;0.00;;;;;;;;;;5008791;28;20427;-73
2022/11/30 02:02:11;;;;;;;0.00;0.00;;;;;;;;;;4999986;28;20053;-73
2022/11/30 02:04:38;;;;;;;0.00;0.00;;;;;;;;;;5005165;28;20034;-73
2022/11/30 02:07:08;;;;;;;0.00;0.00;;;;;;;;;;5003604;28;20026;-74
2022/11/30 02:09:40;;;;;;;0.00;0.00;;;;;;;;;;5004865;28;20018;-73
2022/11/30 02:12:07;;;;;;;0.00;0.00;;;;;;;;;;5005239;28;20121;-74
2022/11/30 02:14:40;;;;;;;0.00;0.00;;;;;;;;;;5001316;28;20033;-74
2022/11/30 02:17:11;;;;;;;0.00;0.00;;;;;;;;;;5003122;28;20133;-74
2022/11/30 02:19:54;;;;;;;0.00;0.00;;;;;;;;;;5002611;28;20038;-74
2022/11/30 02:22:39;;;;;;;0.00;0.00;;;;;;;;;;4999775;28;20029;-77
2022/11/30 02:25:08;;;;;;;0.00;0.00;;;;;;;;;;5001635;28;20038;-82
2022/11/30 02:27:40;;;;;;;0.00;0.00;;;;;;;;;;5001911;28;20033;-81
2022/11/30 02:30:09;;;;;;;0.00;0.00;;;;;;;;;;5004276;28;20038;-84
2022/11/30 02:32:37;;;;;;;0.00;0.00;;;;;;;;;;5004449;28;20022;-81
2022/11/30 02:35:04;;;;;;;0.00;0.00;;;;;;;;;;5002821;28;20033;-80
2022/11/30 02:37:31;;;;;;;0.00;0.00;;;;;;;;;;5001700;28;20296;-78
2022/11/30 02:39:58;;;;;;;0.00;0.00;;;;;;;;;;5011312;28;20542;-75
2022/11/30 02:42:24;;;;;;;0.00;0.00;;;;;;;;;;5002606;28;20033;-79
2022/11/30 02:44:52;;;;;;;0.00;0.00;;;;;;;;;;4998446;28;20215;-78
2022/11/30 02:47:21;;;;;;;0.00;0.00;;;;;;;;;;5005617;28;20049;-77
2022/11/30 02:50:06;;;;;;;0.00;0.00;;;;;;;;;;4999429;28;20037;-80
2022/11/30 02:52:33;;;;;;;0.00;0.00;;;;;;;;;;5000670;28;20404;-79
2022/11/30 02:55:05;;;;;;;0.00;0.00;;;;;;;;;;5003407;28;20507;-79
2022/11/30 02:57:31;;;;;;;0.00;0.00;;;;;;;;;;5002762;28;20046;-80
2022/11/30 02:59:58;;;;;;;0.00;0.00;;;;;;;;;;4999543;28;20484;-79
2022/11/30 03:02:24;;;;;;;0.00;0.00;;;;;;;;;;5006023;28;20361;-80
2022/11/30 03:04:51;;;;;;;0.00;0.00;;;;;;;;;;5011000;28;20045;-78
2022/11/30 03:07:17;;;;;;;0.00;0.00;;;;;;;;;;5005912;28;20026;-80
2022/11/30 03:09:44;;;;;;;0.00;0.00;;;;;;;;;;5001179;28;20068;-78
2022/11/30 03:12:10;;;;;;;0.00;0.00;;;;;;;;;;5002934;28;20032;-78
2022/11/30 03:14:37;;;;;;;0.00;0.00;;;;;;;;;;5008466;28;20041;-79
2022/11/30 03:17:04;;;;;;;0.00;0.00;;;;;;;;;;5005145;28;20038;-79
2022/11/30 03:19:30;;;;;;;0.00;0.00;;;;;;;;;;5024067;28;20210;-78
2022/11/30 03:21:57;;;;;;;0.00;0.00;;;;;;;;;;5013582;28;20076;-78
2022/11/30 03:24:23;;;;;;;0.00;0.00;;;;;;;;;;5036937;28;20036;-78
2022/11/30 03:26:49;;;;;;;0.00;0.00;;;;;;;;;;5028719;28;20087;-80
2022/11/30 03:29:16;;;;;;;0.00;0.00;;;;;;;;;;5012395;28;20026;-80
2022/11/30 03:31:42;;;;;;;0.00;0.00;;;;;;;;;;5027482;28;20482;-78
2022/11/30 03:34:11;;;;;;;0.00;0.00;;;;;;;;;;5012923;28;20112;-79
2022/11/30 03:36:38;;;;;;;0.00;0.00;;;;;;;;;;5010573;28;20052;-80
2022/11/30 03:39:04;;;;;;;0.00;0.00;;;;;;;;;;5032828;28;20511;-80
2022/11/30 03:41:30;;;;;;;0.00;0.00;;;;;;;;;;5003471;28;20029;-78
2022/11/30 03:43:57;;;;;;;0.00;0.00;;;;;;;;;;5019900;28;20100;-77
2022/11/30 03:46:25;;;;;;;0.00;0.00;;;;;;;;;;5006046;28;20037;-78
2022/11/30 03:48:52;;;;;;;0.00;0.00;;;;;;;;;;5024145;28;20028;-78
2022/11/30 03:51:18;;;;;;;0.00;0.00;;;;;;;;;;5000348;28;20132;-79
2022/11/30 03:53:44;;;;;;;0.00;0.00;;;;;;;;;;5012402;28;20029;-80
2022/11/30 03:56:13;;;;;;;0.00;0.00;;;;;;;;;;5030638;28;20029;-79
2022/11/30 03:58:39;;;;;;;0.00;0.00;;;;;;;;;;5009894;28;20419;-82
2022/11/30 04:01:10;;;;;;;0.00;0.00;;;;;;;;;;5022097;28;20077;-83
2022/11/30 04:03:37;;;;;;;0.00;0.00;;;;;;;;;;5009311;28;20068;-83
2022/11/30 04:06:04;;;;;;;0.00;0.00;;;;;;;;;;5011737;28;20083;-80
2022/11/30 04:08:31;;;;;;;0.00;0.00;;;;;;;;;;5002747;28;20091;-82
2022/11/30 04:10:58;;;;;;;0.00;0.00;;;;;;;;;;5000700;28;20048;-79
2022/11/30 04:13:25;;;;;;;0.00;0.00;;;;;;;;;;5002606;28;20029;-76
2022/11/30 04:15:52;;;;;;;0.00;0.00;;;;;;;;;;5013640;28;21939;-80
2022/11/30 04:18:19;;;;;;;0.00;0.00;;;;;;;;;;5011341;28;20084;-78
2022/11/30 04:20:46;;;;;;;0.00;0.00;;;;;;;;;;4991105;28;20048;-75
2022/11/30 04:23:12;;;;;;;0.00;0.00;;;;;;;;;;5013859;28;20048;-75
2022/11/30 04:25:40;;;;;;;0.00;0.00;;;;;;;;;;5013650;28;20048;-73
2022/11/30 04:28:09;;;;;;;0.00;0.00;;;;;;;;;;5014893;28;20030;-73
2022/11/30 04:30:40;;;;;;;0.00;0.00;;;;;;;;;;4992311;28;20160;-76
2022/11/30 04:33:06;;;;;;;0.00;0.00;;;;;;;;;;5006999;28;20021;-76
2022/11/30 04:35:33;;;;;;;0.00;0.00;;;;;;;;;;5008284;28;20041;-74
2022/11/30 04:38:00;;;;;;;0.00;0.00;;;;;;;;;;4987990;28;20041;-75
2022/11/30 04:40:27;;;;;;;0.00;0.00;;;;;;;;;;5012859;28;20362;-77
2022/11/30 04:42:53;;;;;;;0.00;0.00;;;;;;;;;;4987633;28;20029;-74
2022/11/30 04:45:20;;;;;;;0.00;0.00;;;;;;;;;;4992309;28;20033;-76
2022/11/30 04:47:46;;;;;;;0.00;0.00;;;;;;;;;;5000715;28;20164;-79
2022/11/30 04:50:12;;;;;;;0.00;0.00;;;;;;;;;;5000447;28;20022;-78
2022/11/30 04:52:39;;;;;;;0.00;0.00;;;;;;;;;;4999756;28;20031;-74
2022/11/30 04:55:05;;;;;;;0.00;0.00;;;;;;;;;;5019321;28;20029;-76
2022/11/30 04:57:31;;;;;;;0.00;0.00;;;;;;;;;;5025877;28;20109;-81
2022/11/30 04:59:58;;;;;;;0.00;0.00;;;;;;;;;;5001818;28;20430;-80
2022/11/30 05:02:24;;;;;;;0.00;0.00;;;;;;;;;;5017073;28;20262;-76
2022/11/30 05:04:50;;;;;;;0.00;0.00;;;;;;;;;;4997776;28;20052;-75
2022/11/30 05:07:17;;;;;;;0.00;0.00;;;;;;;;;;5019094;28;20028;-79
2022/11/30 05:09:43;;;;;;;0.00;0.00;;;;;;;;;;4996647;28;20030;-78
2022/11/30 05:12:09;;;;;;;0.00;0.00;;;;;;;;;;5017333;28;20042;-75
2022/11/30 05:14:36;;;;;;;0.00;0.00;;;;;;;;;;5002214;28;20034;-76
2022/11/30 05:17:02;;;;;;;0.00;0.00;;;;;;;;;;4998109;28;20048;-73
2022/11/30 05:19:29;;;;;;;0.00;0.00;;;;;;;;;;5015735;28;20070;-75
2022/11/30 05:21:55;;;;;;;0.00;0.00;;;;;;;;;;5004340;28;20041;-74
2022/11/30 05:24:22;;;;;;;0.00;0.00;;;;;;;;;;4998629;28;20115;-77
2022/11/30 05:26:48;;;;;;;0.00;0.00;;;;;;;;;;5001514;28;20033;-79
2022/11/30 05:29:14;;;;;;;0.00;0.00;;;;;;;;;;5018218;28;20034;-79
2022/11/30 05:31:41;;;;;;;0.00;0.00;;;;;;;;;;4997010;28;20045;-74
2022/11/30 05:34:07;;;;;;;0.00;0.00;;;;;;;;;;5016074;28;20051;-74
2022/11/30 05:36:34;;;;;;;0.00;0.00;;;;;;;;;;5000840;28;20120;-75
2022/11/30 05:39:00;;;;;;;0.00;0.00;;;;;;;;;;5020085;28;20036;-75
2022/11/30 05:41:26;;;;;;;0.00;0.00;;;;;;;;;;5005972;28;20060;-79
2022/11/30 05:43:53;;;;;;;0.00;0.00;;;;;;;;;;4996970;28;20152;-78
2022/11/30 05:46:19;;;;;;;0.00;0.00;;;;;;;;;;4995213;28;20037;-77
2022/11/30 05:49:08;;;;;;;0.00;0.00;;;;;;;;;;5017031;28;20156;-78
2022/11/30 05:51:35;;;;;;;0.00;0.00;;;;;;;;;;4978099;28;20045;-78
2022/11/30 05:54:01;;;;;;;0.00;0.00;;;;;;;;;;5003764;28;20041;-80
2022/11/30 05:56:27;;;;;;;0.00;0.00;;;;;;;;;;5000784;28;20089;-80
2022/11/30 05:58:54;;;;;;;0.00;0.00;;;;;;;;;;5005856;28;20121;-81
2022/11/30 06:01:25;;;;;;;0.00;0.00;;;;;;;;;;5036463;28;20053;-78
2022/11/30 06:03:51;;;;;;;0.00;0.00;;;;;;;;;;5023653;28;20256;-79
2022/11/30 06:06:18;;;;;;;0.00;0.00;;;;;;;;;;5020413;28;20038;-80
2022/11/30 06:08:45;;;;;;;0.00;0.00;;;;;;;;;;5021019;28;20030;-79
2022/11/30 06:11:11;;;;;;;0.00;0.00;;;;;;;;;;5004522;28;20112;-79
2022/11/30 06:13:38;;;;;;;0.00;0.00;;;;;;;;;;5021603;28;20025;-83
2022/11/30 06:16:05;;;;;;;0.00;0.00;;;;;;;;;;5002911;28;20029;-80
2022/11/30 06:18:32;;;;;;;0.00;0.00;;;;;;;;;;5024951;28;20030;-80
2022/11/30 06:21:07;;;;;;;0.00;0.00;;;;;;;;;;5003726;28;20033;-79
2022/11/30 06:23:33;;;;;;;0.00;0.00;;;;;;;;;;5018233;28;20053;-77
2022/11/30 06:26:10;;;;;;;0.00;0.00;;;;;;;;;;5018731;28;20034;-78
2022/11/30 06:28:36;;;;;;;0.00;0.00;;;;;;;;;;5000610;28;20045;-78
2022/11/30 06:31:04;;;;;;;0.00;0.00;;;;;;;;;;5003235;28;20037;-81
2022/11/30 06:33:31;;;;;;;0.00;0.00;;;;;;;;;;5020272;28;20113;-79
2022/11/30 06:35:57;;;;;;;0.00;0.00;;;;;;;;;;5001110;28;20037;-82
2022/11/30 06:38:24;;;;;;;0.00;0.00;;;;;;;;;;5005006;28;20053;-81
2022/11/30 06:40:51;;;;;;;0.00;0.00;;;;;;;;;;5025272;28;20152;-86
2022/11/30 06:43:18;;;;;;;0.00;0.00;;;;;;;;;;5012285;28;20033;-85
2022/11/30 06:45:50;;;;;;;0.00;0.00;;;;;;;;;;5024196;28;20957;-85
2022/11/30 06:48:16;;;;;;;0.00;0.00;;;;;;;;;;5016212;28;20037;-83
2022/11/30 06:50:43;;;;;;;0.00;0.00;;;;;;;;;;5015888;28;20100;-86
2022/11/30 06:53:09;;;;;;;0.00;0.00;;;;;;;;;;5023972;28;20064;-85
2022/11/30 06:55:37;;;;;;;0.00;0.00;;;;;;;;;;5002372;28;20033;-81
2022/11/30 06:58:10;;;;;;;0.00;0.00;;;;;;;;;;5003415;28;20061;-81
2022/11/30 07:00:37;;;;;;;0.00;0.00;;;;;;;;;;4997570;28;20128;-81
2022/11/30 07:03:07;;;;;;;0.00;0.00;;;;;;;;;;4994409;28;20577;-85
2022/11/30 07:05:41;;;;;;;0.00;0.00;;;;;;;;;;4999563;28;20692;-83
2022/11/30 07:08:10;;;;;;;0.00;0.00;;;;;;;;;;5011592;28;20025;-85
2022/11/30 07:10:44;;;;;;;0.00;0.00;;;;;;;;;;5000617;28;20505;-79
2022/11/30 07:13:14;;;;;;;0.00;0.00;;;;;;;;;;5019203;28;20030;-79
2022/11/30 07:15:41;;;;;;;0.00;0.00;;;;;;;;;;5006219;28;20032;-76
2022/11/30 07:18:07;;;;;;;0.00;0.00;;;;;;;;;;5002145;28;20052;-78
2022/11/30 07:20:34;;;;;;;0.00;0.00;;;;;;;;;;5004496;28;20373;-75
2022/11/30 07:26:05;;;;;;;0.00;0.00;;;;;;;;;;5002551;28;20603;-74
2022/11/30 07:26:06;;;;;;;0.00;0.00;;;;;;;;;;5022783;28;20509;-76
2022/11/30 07:28:40;;;;;;;0.00;0.00;;;;;;;;;;5001892;28;20025;-78
2022/11/30 07:31:20;;;;;;;0.00;0.00;;;;;;;;;;5025820;28;20030;-76
2022/11/30 07:33:48;;;;;;;0.00;0.00;;;;;;;;;;5026670;28;20076;-81
2022/11/30 07:36:15;;;;;;;0.00;0.00;;;;;;;;;;4995806;28;20057;-81
2022/11/30 07:39:00;;;;;;;0.00;0.00;;;;;;;;;;5003738;28;20035;-80
2022/11/30 07:41:26;;;;;;;0.00;0.00;;;;;;;;;;5025945;28;20025;-80
2022/11/30 07:43:52;;;;;;;0.00;0.00;;;;;;;;;;5022779;28;20411;-79
2022/11/30 07:46:19;;;;;;;0.00;0.00;;;;;;;;;;5000752;28;20029;-80
2022/11/30 07:48:46;;;;;;;0.00;0.00;;;;;;;;;;5006335;28;20030;-79
2022/11/30 07:51:13;;;;;;;0.00;0.00;;;;;;;;;;5002281;28;20029;-80
2022/11/30 07:53:43;;;;;;;0.00;0.00;;;;;;;;;;5005606;28;20079;-79
2022/11/30 07:56:11;;;;;;;0.00;0.00;;;;;;;;;;5002802;28;20507;-78
2022/11/30 07:58:37;;;;;;;0.00;0.00;;;;;;;;;;5006552;28;20128;-79
2022/11/30 08:01:04;;;;;;;0.00;0.00;;;;;;;;;;5033507;28;20057;-78
2022/11/30 08:04:41;;;;;;;0.00;0.00;;;;;;;;;;5094953;27;20505;-78
2022/11/30 08:07:07;;;;;;;0.00;0.00;;;;;;;;;;5062325;28;20025;-79
2022/11/30 08:09:34;;;;;;;0.00;0.00;;;;;;;;;;5078386;28;20033;-78
2022/11/30 08:12:00;;;;;;;0.00;0.00;;;;;;;;;;5057494;28;20032;-77
2022/11/30 08:14:26;;;;;;;0.00;0.00;;;;;;;;;;5050625;28;20021;-79
2022/11/30 08:16:53;;;;;;;0.00;0.00;;;;;;;;;;5049886;28;20513;-78
2022/11/30 08:19:19;;;;;;;0.00;0.00;;;;;;;;;;5052605;28;20165;-79
2022/11/30 08:21:45;;;;;;;0.00;0.00;;;;;;;;;;5053636;28;20436;-78
2022/11/30 08:24:15;;;;;;;0.00;0.00;;;;;;;;;;5056909;28;20123;-78
2022/11/30 08:26:41;;;;;;;0.00;0.00;;;;;;;;;;5054605;28;20024;-78
2022/11/30 08:29:10;;;;;;;0.00;0.00;;;;;;;;;;5073259;28;20031;-78
2022/11/30 08:31:55;;;;;;;0.00;0.00;;;;;;;;;;5069322;28;20093;-78
2022/11/30 08:34:21;;;;;;;0.00;0.00;;;;;;;;;;5052143;28;20039;-80
2022/11/30 08:36:48;;;;;;;0.00;0.00;;;;;;;;;;5054609;28;20032;-80
2022/11/30 08:39:14;;;;;;;0.00;0.00;;;;;;;;;;5061676;28;20115;-80
2022/11/30 08:41:40;;;;;;;0.00;0.00;;;;;;;;;;5053920;28;20028;-75
2022/11/30 08:44:07;;;;;;;0.00;0.00;;;;;;;;;;5068658;28;20021;-76
2022/11/30 08:46:34;;;;;;;0.00;0.00;;;;;;;;;;5072300;28;20032;-76
2022/11/30 08:49:01;;;;;;;0.00;0.00;;;;;;;;;;5057048;28;20020;-76
2022/11/30 08:51:27;;;;;;;0.00;0.00;;;;;;;;;;5049120;28;20183;-77
2022/11/30 08:53:53;;;;;;;0.00;0.00;;;;;;;;;;5047147;28;20051;-76
2022/11/30 08:56:24;;;;;;;0.00;0.00;;;;;;;;;;5045990;28;20056;-75
2022/11/30 08:58:50;;;;;;;0.00;0.00;;;;;;;;;;5052030;28;20074;-76
2022/11/30 09:01:18;;;;;;;0.00;0.00;;;;;;;;;;5065409;28;20526;-75
2022/11/30 09:03:45;;;;;;;0.00;0.00;;;;;;;;;;5058769;28;20053;-76
2022/11/30 09:06:13;;;;;;;0.00;0.00;;;;;;;;;;5070485;28;20047;-76
2022/11/30 09:08:39;;;;;;;0.00;0.00;;;;;;;;;;5072862;28;20025;-75
2022/11/30 09:11:10;;;;;;;0.00;0.00;;;;;;;;;;5063329;28;20100;-79
2022/11/30 09:13:36;;;;;;;0.00;0.00;;;;;;;;;;5073275;28;20097;-79
2022/11/30 09:16:03;;;;;;;0.00;0.00;;;;;;;;;;5052655;28;20036;-78
2022/11/30 09:18:29;;;;;;;0.00;0.00;;;;;;;;;;5055034;28;20068;-79
2022/11/30 09:21:07;;;;;;;0.00;0.00;;;;;;;;;;5057537;28;20072;-78
2022/11/30 09:23:36;;;;;;;0.00;0.00;;;;;;;;;;5054310;28;20092;-76
2022/11/30 09:26:04;;;;;;;0.00;0.00;;;;;;;;;;5063775;28;20029;-75
2022/11/30 09:28:31;;;;;;;0.00;0.00;;;;;;;;;;5052851;28;20032;-78
2022/11/30 09:31:02;;;;;;;0.00;0.00;;;;;;;;;;5055329;28;20109;-79
2022/11/30 09:33:29;;;;;;;0.00;0.00;;;;;;;;;;5060158;28;20162;-80
2022/11/30 09:35:56;;;;;;;0.00;0.00;;;;;;;;;;5032308;28;20056;-79
2022/11/30 09:38:23;;;;;;;0.00;0.00;;;;;;;;;;5054187;28;20026;-78
2022/11/30 09:40:54;;;;;;;0.00;0.00;;;;;;;;;;5056995;28;20025;-77
2022/11/30 09:43:20;;;;;;;0.00;0.00;;;;;;;;;;5065254;28;20391;-77
2022/11/30 09:45:51;;;;;;;0.00;0.00;;;;;;;;;;5061356;28;20055;-77
2022/11/30 09:48:40;;;;;;;0.00;0.00;;;;;;;;;;5072221;28;20789;-77
2022/11/30 09:51:13;;;;;;;0.00;0.00;;;;;;;;;;5052945;28;20041;-77
2022/11/30 09:53:42;;;;;;;0.00;0.00;;;;;;;;;;5055704;28;20039;-77
2022/11/30 09:56:24;;;;;;;0.00;0.00;;;;;;;;;;5060545;28;20032;-74
2022/11/30 09:58:55;;;;;;;0.00;0.00;;;;;;;;;;5059151;28;20029;-77
2022/11/30 10:01:22;;;;;;;0.00;0.00;;;;;;;;;;5059570;28;20028;-80
2022/11/30 10:03:49;;;;;;;0.00;0.00;;;;;;;;;;5044169;28;20042;-81
2022/11/30 10:06:35;;;;;;;0.00;0.00;;;;;;;;;;5030734;28;20041;-80
2022/11/30 10:09:01;;;;;;;0.00;0.00;;;;;;;;;;5024160;28;20184;-80
2022/11/30 10:11:40;;;;;;;0.00;0.00;;;;;;;;;;5014694;28;20040;-79
2022/11/30 10:14:29;;;;;;;0.00;0.00;;;;;;;;;;5045146;28;20124;-82
2022/11/30 10:17:06;;;;;;;0.00;0.00;;;;;;;;;;5013201;28;20036;-78
2022/11/30 10:19:51;;;;;;;0.00;0.00;;;;;;;;;;5023782;28;20043;-80
2022/11/30 10:22:36;;;;;;;0.00;0.00;;;;;;;;;;5022425;28;20032;-76
2022/11/30 10:25:15;;;;;;;0.00;0.00;;;;;;;;;;5028939;28;20029;-79
2022/11/30 10:27:44;;;;;;;0.00;0.00;;;;;;;;;;5035061;28;20021;-78
2022/11/30 10:30:18;;;;;;;0.00;0.00;;;;;;;;;;5020733;28;20040;-80
2022/11/30 10:32:46;;;;;;;0.00;0.00;;;;;;;;;;5024976;28;20105;-76
2022/11/30 10:35:18;;;;;;;0.00;0.00;;;;;;;;;;5025262;28;20103;-81
2022/11/30 10:37:45;;;;;;;0.00;0.00;;;;;;;;;;5017286;28;20043;-81
2022/11/30 10:40:11;;;;;;;0.00;0.00;;;;;;;;;;5034916;28;20514;-82
2022/11/30 10:42:41;;;;;;;0.00;0.00;;;;;;;;;;5016246;28;20041;-79
2022/11/30 10:45:12;;;;;;;0.00;0.00;;;;;;;;;;5036116;28;20028;-79
2022/11/30 10:47:51;;;;;;;0.00;0.00;;;;;;;;;;5035240;28;20021;-79
2022/11/30 10:50:17;;;;;;;0.00;0.00;;;;;;;;;;5021442;28;20021;-82
2022/11/30 10:52:55;;;;;;;0.00;0.00;;;;;;;;;;5039980;28;20025;-75
2022/11/30 10:55:23;;;;;;;0.00;0.00;;;;;;;;;;5022129;28;20495;-79
2022/11/30 10:57:50;;;;;;;0.00;0.00;;;;;;;;;;5020338;28;20535;-80
2022/11/30 11:00:17;;;;;;;0.00;0.00;;;;;;;;;;5025463;28;20168;-81
2022/11/30 11:02:50;;;;;;;0.00;0.00;;;;;;;;;;5035402;28;20059;-79
2022/11/30 11:05:20;;;;;;;0.00;0.00;;;;;;;;;;5058121;28;20025;-81
2022/11/30 11:07:46;;;;;;;0.00;0.00;;;;;;;;;;5058730;28;20033;-77
2022/11/30 11:10:17;;;;;;;0.00;0.00;;;;;;;;;;5059898;28;20039;-79
2022/11/30 11:12:49;;;;;;;0.00;0.00;;;;;;;;;;5058095;28;20056;-82
2022/11/30 11:15:21;;;;;;;0.00;0.00;;;;;;;;;;5057302;28;20496;-79
2022/11/30 11:17:47;;;;;;;0.00;0.00;;;;;;;;;;5058457;28;20119;-79
2022/11/30 11:20:28;;;;;;;0.00;0.00;;;;;;;;;;5058431;28;20043;-77
2022/11/30 11:22:54;;;;;;;0.00;0.00;;;;;;;;;;5065268;28;20025;-80
2022/11/30 11:25:22;;;;;;;0.00;0.00;;;;;;;;;;5062625;28;20059;-78
2022/11/30 11:27:53;;;;;;;0.00;0.00;;;;;;;;;;5057145;28;20390;-81
2022/11/30 11:30:28;;;;;;;0.00;0.00;;;;;;;;;;5056786;28;20029;-80
2022/11/30 11:32:59;;;;;;;0.00;0.00;;;;;;;;;;5062497;28;20036;-79
2022/11/30 11:35:36;;;;;;;0.00;0.00;;;;;;;;;;5060802;28;20111;-80
2022/11/30 11:38:02;;;;;;;0.00;0.00;;;;;;;;;;5063792;28;20049;-79
2022/11/30 11:40:29;;;;;;;0.00;0.00;;;;;;;;;;5057757;28;20111;-78
2022/11/30 11:42:59;;;;;;;0.00;0.00;;;;;;;;;;5060489;28;20040;-79
2022/11/30 11:46:12;;;;;;;0.00;0.00;;;;;;;;;;5053768;28;20040;-80
2022/11/30 11:48:28;;;;;;;0.00;0.00;;;;;;;;;;5053180;28;20045;-81
2022/11/30 11:50:59;;;;;;;0.00;0.00;;;;;;;;;;5055970;28;20044;-80
2022/11/30 11:53:37;;;;;;;0.00;0.00;;;;;;;;;;5058035;28;20101;-83
2022/11/30 11:56:17;;;;;;;0.00;0.00;;;;;;;;;;5060638;28;20541;-79
2022/11/30 11:58:50;;;;;;;0.00;0.00;;;;;;;;;;5059980;28;20025;-81
2022/11/30 12:01:21;;;;;;;0.00;0.00;;;;;;;;;;5080692;28;20029;-81
2022/11/30 12:04:06;;;;;;;0.00;0.00;;;;;;;;;;5079389;28;20045;-83
2022/11/30 12:06:33;;;;;;;0.00;0.00;;;;;;;;;;5056146;28;20029;-81
2022/11/30 12:09:03;;;;;;;0.00;0.00;;;;;;;;;;5062376;28;20021;-82
2022/11/30 12:11:32;;;;;;;0.00;0.00;;;;;;;;;;5057605;28;20033;-78
2022/11/30 12:14:00;;;;;;;0.00;0.00;;;;;;;;;;5056737;28;20025;-79
2022/11/30 12:16:32;;;;;;;0.00;0.00;;;;;;;;;;5057951;28;20029;-78
2022/11/30 12:18:59;;;;;;;0.00;0.00;;;;;;;;;;5059021;28;20025;-79
2022/11/30 12:21:44;;;;;;;0.00;0.00;;;;;;;;;;5061584;28;20065;-80
2022/11/30 12:24:19;;;;;;;0.00;0.00;;;;;;;;;;5064178;28;20029;-78
2022/11/30 12:26:45;;;;;;;0.00;0.00;;;;;;;;;;5059818;28;20124;-82
2022/11/30 12:29:24;;;;;;;0.00;0.00;;;;;;;;;;5056211;28;20028;-80
2022/11/30 12:32:17;;;;;;;0.00;0.00;;;;;;;;;;5057757;28;20072;-80
2022/11/30 12:35:13;;;;;;;0.00;0.00;;;;;;;;;;5056037;28;20063;-81
2022/11/30 12:38:02;;;;;;;0.00;0.00;;;;;;;;;;5042393;28;20124;-79
2022/11/30 12:40:35;;;;;;;0.00;0.00;;;;;;;;;;5056072;28;20352;-80
2022/11/30 12:43:16;;;;;;;0.00;0.00;;;;;;;;;;5058593;28;20061;-79
2022/11/30 12:45:43;;;;;;;0.00;0.00;;;;;;;;;;5056935;28;20104;-81
2022/11/30 12:48:20;;;;;;;0.00;0.00;;;;;;;;;;5058193;28;20402;-79
2022/11/30 12:50:52;;;;;;;0.00;0.00;;;;;;;;;;5056958;28;20051;-81
2022/11/30 12:53:32;;;;;;;0.00;0.00;;;;;;;;;;5058578;28;20035;-80
2022/11/30 12:56:17;;;;;;;0.00;0.00;;;;;;;;;;5058174;28;20032;-81
2022/11/30 12:58:46;;;;;;;0.00;0.00;;;;;;;;;;5060736;28;20032;-80
2022/11/30 13:01:20;;;;;;;0.00;0.00;;;;;;;;;;5069741;28;20120;-80
2022/11/30 13:03:52;;;;;;;0.00;0.00;;;;;;;;;;5059733;28;20512;-82
2022/11/30 13:06:39;;;;;;;0.00;0.00;;;;;;;;;;5077916;28;20029;-79
2022/11/30 13:09:13;;;;;;;0.00;0.00;;;;;;;;;;5070522;28;20158;-79
2022/11/30 13:11:40;;;;;;;0.00;0.00;;;;;;;;;;5057675;28;20075;-80
2022/11/30 13:14:16;;;;;;;0.00;0.00;;;;;;;;;;5061553;28;20024;-81
2022/11/30 13:16:43;;;;;;;0.00;0.00;;;;;;;;;;5084273;28;20024;-82
2022/11/30 13:19:40;;;;;;;0.00;0.00;;;;;;;;;;5062448;28;20029;-81
2022/11/30 13:22:10;;;;;;;0.00;0.00;;;;;;;;;;5058031;28;20029;-82
2022/11/30 13:24:39;;;;;;;0.00;0.00;;;;;;;;;;5059717;28;20116;-80
2022/11/30 13:27:10;;;;;;;0.00;0.00;;;;;;;;;;5066648;28;20059;-81
2022/11/30 13:29:46;;;;;;;0.00;0.00;;;;;;;;;;5060025;28;20020;-81
2022/11/30 13:32:14;;;;;;;0.00;0.00;;;;;;;;;;5063358;28;20052;-81
2022/11/30 13:34:40;;;;;;;0.00;0.00;;;;;;;;;;5061693;28;20059;-80
2022/11/30 13:37:12;;;;;;;0.00;0.00;;;;;;;;;;5068371;28;20483;-81
2022/11/30 13:39:46;;;;;;;0.00;0.00;;;;;;;;;;5061475;28;20140;-80
2022/11/30 13:42:12;;;;;;;0.00;0.00;;;;;;;;;;5062573;28;20542;-80
2022/11/30 13:44:40;;;;;;;0.00;0.00;;;;;;;;;;5064267;28;20053;-79
2022/11/30 13:47:26;;;;;;;0.00;0.00;;;;;;;;;;5061397;28;20021;-79
2022/11/30 13:49:55;;;;;;;0.00;0.00;;;;;;;;;;5053151;28;20383;-79
2022/11/30 13:52:41;;;;;;;0.00;0.00;;;;;;;;;;5064008;28;20029;-82
2022/11/30 13:55:28;;;;;;;0.00;0.00;;;;;;;;;;5075814;28;20043;-81
2022/11/30 13:57:54;;;;;;;0.00;0.00;;;;;;;;;;5037975;28;20063;-81
2022/11/30 14:00:30;;;;;;;0.00;0.00;;;;;;;;;;5074812;28;20034;-79
2022/11/30 14:03:15;;;;;;;0.00;0.00;;;;;;;;;;5076028;28;20052;-82
2022/11/30 14:05:43;;;;;;;0.00;0.00;;;;;;;;;;5077301;28;20044;-80
2022/11/30 14:08:11;;;;;;;0.00;0.00;;;;;;;;;;5077389;28;20025;-83
2022/11/30 14:10:43;;;;;;;0.00;0.00;;;;;;;;;;5076681;28;20032;-81
2022/11/30 14:13:09;;;;;;;0.00;0.00;;;;;;;;;;5075939;28;20036;-81
2022/11/30 14:15:39;;;;;;;0.00;0.00;;;;;;;;;;5065172;28;20032;-81
2022/11/30 14:18:08;;;;;;;0.00;0.00;;;;;;;;;;5068635;28;20028;-81
2022/11/30 14:20:38;;;;;;;0.00;0.00;;;;;;;;;;5075404;28;20035;-84
2022/11/30 14:23:11;;;;;;;0.00;0.00;;;;;;;;;;5063794;28;20031;-83
2022/11/30 14:25:39;;;;;;;0.00;0.00;;;;;;;;;;5064727;28;20085;-83
2022/11/30 14:28:08;;;;;;;0.00;0.00;;;;;;;;;;5059620;28;20116;-80
2022/11/30 14:30:38;;;;;;;0.00;0.00;;;;;;;;;;5062293;28;20464;-84
2022/11/30 14:33:11;;;;;;;0.00;0.00;;;;;;;;;;5064984;28;20115;-79
2022/11/30 14:35:39;;;;;;;0.00;0.00;;;;;;;;;;5071306;28;20028;-81
2022/11/30 14:38:14;;;;;;;0.00;0.00;;;;;;;;;;5063059;28;20078;-81
2022/11/30 14:40:49;;;;;;;0.00;0.00;;;;;;;;;;5061789;28;20043;-80
2022/11/30 14:43:17;;;;;;;0.00;0.00;;;;;;;;;;5066428;28;20051;-80
2022/11/30 14:45:43;;;;;;;0.00;0.00;;;;;;;;;;5059847;28;20514;-81
2022/11/30 14:48:12;;;;;;;0.00;0.00;;;;;;;;;;5067878;28;20025;-80
2022/11/30 14:50:43;;;;;;;0.00;0.00;;;;;;;;;;5064016;28;20029;-79
2022/11/30 14:53:09;;;;;;;0.00;0.00;;;;;;;;;;5062057;28;20032;-81
2022/11/30 14:55:51;;;;;;;0.00;0.00;;;;;;;;;;5056276;28;20091;-80
2022/11/30 14:58:20;;;;;;;0.00;0.00;;;;;;;;;;5073225;28;20024;-80
2022/11/30 15:00:47;;;;;;;0.00;0.00;;;;;;;;;;5056511;28;20032;-81